Terminal Aerodrome Forecast
Issued by NWS St Louis, MO

Home | Current Version | Previous Version | Text Only | Print | Product List | Glossary On
Versions: 1 2 3 4 5 6 7 8 9 10 11 12 13 14 15 16 17 18
281
FTUS43 KLSX 232211 AAB
TAFCOU
TAF AMD
KCOU 232211Z 2322/2418 16010KT P6SM SCT015 BKN250
      TEMPO 2323/2401 BKN015
     FM240100 16008KT P6SM VCTS SCT050CB BKN090
     FM240600 18008KT P6SM SCT050 BKN080
     FM241600 22012KT P6SM SCT050 BKN250=

USA.gov is the U.S. government's official web portal to all federal, state and local government web resources and services.